Time;durP1;ratioP1;P1;durP2;ratioP2;P2;SDS_P1;SDS_P2;PMS_P1;PMS_P2;Temp;Humidity;BMP_temperature;BMP_pressure;BME280_temperature;BME280_humidity;BME280_pressure;Samples;Min_cycle;Max_cycle;Signal;HPM_P1;HPM_P2
2022/01/21 00:00:28;;;;;;;6.07;1.50;;;2.50;99.90;;;;;;5077805;28;20047;-72
2022/01/21 00:02:53;;;;;;;12.23;1.95;;;2.60;99.90;;;;;;5080626;28;20028;-73
2022/01/21 00:05:21;;;;;;;9.10;1.00;;;2.60;99.90;;;;;;5074509;28;20052;-72
2022/01/21 00:07:47;;;;;;;9.75;1.58;;;2.50;99.90;;;;;;5071283;28;20045;-73
2022/01/21 00:10:13;;;;;;;4.07;0.98;;;2.40;99.90;;;;;;5071949;28;20025;-73
2022/01/21 00:12:39;;;;;;;5.28;0.95;;;2.40;99.90;;;;;;5075345;28;20040;-73
2022/01/21 00:15:06;;;;;;;14.75;1.92;;;2.30;99.90;;;;;;5071926;28;20053;-73
2022/01/21 00:17:32;;;;;;;15.63;3.15;;;2.20;99.90;;;;;;5074938;28;20021;-74
2022/01/21 00:30:54;;;;;;;8.30;1.30;;;2.10;99.90;;;;;;5071783;28;20031;-73
2022/01/21 00:33:20;;;;;;;17.90;2.95;;;2.20;99.90;;;;;;5071420;28;20021;-72
2022/01/21 00:35:45;;;;;;;11.70;1.90;;;2.20;99.90;;;;;;5072275;28;20052;-72
2022/01/21 00:38:13;;;;;;;13.88;1.60;;;2.10;99.90;;;;;;5074830;28;20086;-73
2022/01/21 00:40:39;;;;;;;9.18;1.90;;;2.10;99.90;;;;;;5074769;28;20048;-72
2022/01/21 00:45:36;;;;;;;9.98;2.45;;;2.20;99.90;;;;;;5076576;28;20048;-73
2022/01/21 00:48:02;;;;;;;15.23;1.30;;;2.20;99.90;;;;;;5075097;28;20025;-73
2022/01/21 00:50:28;;;;;;;9.57;2.55;;;2.10;99.90;;;;;;5075172;28;20025;-73
2022/01/21 00:52:53;;;;;;;10.27;1.25;;;2.00;99.90;;;;;;5077237;28;20074;-73
2022/01/21 00:55:19;;;;;;;8.77;2.38;;;2.00;99.90;;;;;;5074603;28;20511;-73
2022/01/21 00:57:44;;;;;;;10.10;2.28;;;1.90;99.90;;;;;;5074973;28;20028;-73
2022/01/21 01:00:12;;;;;;;10.63;1.15;;;1.90;99.90;;;;;;5075530;28;20369;-73
2022/01/21 01:02:39;;;;;;;4.00;0.98;;;1.90;99.90;;;;;;5075211;28;20036;-73
2022/01/21 01:05:06;;;;;;;7.05;1.02;;;1.90;99.90;;;;;;5074904;28;20032;-73
2022/01/21 01:07:32;;;;;;;10.88;1.67;;;2.00;99.90;;;;;;5075113;28;20075;-73
2022/01/21 01:10:02;;;;;;;4.80;1.27;;;2.00;99.90;;;;;;5074519;28;20480;-73
2022/01/21 01:20:49;;;;;;;15.77;1.90;;;2.20;99.90;;;;;;5066486;28;20052;-73
2022/01/21 01:23:28;;;;;;;12.88;1.30;;;2.20;99.90;;;;;;5074143;28;20490;-72
2022/01/21 01:28:39;;;;;;;10.80;1.70;;;2.30;99.90;;;;;;5075438;28;20063;-73
2022/01/21 01:31:05;;;;;;;5.13;0.98;;;2.40;99.90;;;;;;5073567;28;20032;-73
2022/01/21 01:33:36;;;;;;;10.63;1.42;;;2.40;99.90;;;;;;5074904;28;20353;-73
2022/01/21 01:36:06;;;;;;;9.23;2.28;;;2.40;99.90;;;;;;5074528;28;20028;-73
2022/01/21 01:41:56;;;;;;;8.55;1.10;;;2.30;99.90;;;;;;5051995;28;20166;-73
2022/01/21 01:49:50;;;;;;;8.10;1.55;;;2.20;99.90;;;;;;5074281;28;20078;-73
2022/01/21 01:52:17;;;;;;;8.48;0.90;;;2.30;99.90;;;;;;5073477;28;20341;-73
2022/01/21 01:54:53;;;;;;;4.50;0.93;;;2.30;99.90;;;;;;5074151;28;20028;-73
2022/01/21 01:57:19;;;;;;;5.45;1.00;;;2.30;99.90;;;;;;5073535;28;20070;-73
2022/01/21 01:59:45;;;;;;;10.55;1.50;;;2.40;99.90;;;;;;5073303;28;20024;-72
2022/01/21 02:02:13;;;;;;;7.03;1.17;;;2.60;99.90;;;;;;5074184;28;20169;-73
2022/01/21 02:04:40;;;;;;;8.98;1.30;;;2.70;99.90;;;;;;5079398;28;20032;-74
2022/01/21 02:07:06;;;;;;;16.83;1.30;;;2.60;99.90;;;;;;5073021;28;20048;-73
2022/01/21 02:09:32;;;;;;;9.52;1.20;;;2.60;99.90;;;;;;5073993;28;20013;-73
2022/01/21 02:11:58;;;;;;;6.05;1.17;;;2.50;99.90;;;;;;5073599;28;20043;-73
2022/01/21 02:14:29;;;;;;;7.90;1.20;;;2.40;99.90;;;;;;5076008;28;20096;-73
2022/01/21 02:22:37;;;;;;;7.57;0.90;;;2.10;99.90;;;;;;5073318;28;20137;-72
2022/01/21 02:25:15;;;;;;;4.60;1.00;;;1.90;99.90;;;;;;5073532;28;20543;-74
2022/01/21 02:27:43;;;;;;;5.10;0.90;;;1.80;99.90;;;;;;5073610;28;20040;-73
2022/01/21 02:30:09;;;;;;;7.32;0.80;;;1.80;99.90;;;;;;5073574;28;20020;-73
2022/01/21 02:32:35;;;;;;;6.22;0.90;;;1.70;99.90;;;;;;5073572;28;20040;-73
2022/01/21 02:35:00;;;;;;;3.85;1.00;;;1.70;99.90;;;;;;5072788;28;20016;-73
2022/01/21 02:37:26;;;;;;;8.10;1.48;;;1.70;99.90;;;;;;5073250;28;20154;-73
2022/01/21 02:39:52;;;;;;;2.63;0.88;;;1.90;99.90;;;;;;5074639;28;20025;-72
2022/01/21 02:42:17;;;;;;;7.00;0.88;;;1.90;99.90;;;;;;5072392;28;20119;-73
2022/01/21 02:44:43;;;;;;;7.78;1.00;;;1.80;99.90;;;;;;5073250;28;20460;-73
2022/01/21 02:47:09;;;;;;;7.25;0.88;;;1.80;99.90;;;;;;5073072;28;20032;-73
2022/01/21 02:49:36;;;;;;;9.18;1.08;;;1.70;99.90;;;;;;5074393;28;20063;-74
2022/01/21 02:52:03;;;;;;;4.63;0.82;;;1.70;99.90;;;;;;5073330;28;20424;-72
2022/01/21 02:54:34;;;;;;;9.05;1.00;;;1.70;99.90;;;;;;5072548;28;20056;-72
2022/01/21 02:57:01;;;;;;;8.02;1.38;;;1.60;99.90;;;;;;5073033;28;20024;-72
2022/01/21 02:59:27;;;;;;;3.58;0.88;;;1.50;99.90;;;;;;5072141;28;20028;-73
2022/01/21 03:01:52;;;;;;;5.63;1.45;;;1.40;99.90;;;;;;5073677;28;20423;-73
2022/01/21 03:04:45;;;;;;;4.28;0.98;;;1.50;99.90;;;;;;5072346;28;20033;-73
2022/01/21 03:07:06;;;;;;;3.30;0.60;;;1.30;99.90;;;;;;5071421;28;20179;-73
2022/01/21 03:09:32;;;;;;;1.73;0.50;;;1.30;99.90;;;;;;5072164;28;20048;-73
2022/01/21 03:12:01;;;;;;;3.05;0.80;;;1.40;99.90;;;;;;5073392;28;20139;-73
2022/01/21 03:14:26;;;;;;;9.80;2.42;;;0.70;99.90;;;;;;5072843;28;20054;-73
2022/01/21 03:16:52;;;;;;;11.98;1.98;;;1.40;99.90;;;;;;5071655;28;20020;-72
2022/01/21 03:19:18;;;;;;;6.82;1.48;;;1.50;99.90;;;;;;5071488;28;20051;-72
2022/01/21 03:21:43;;;;;;;7.88;1.20;;;1.60;99.90;;;;;;5072061;28;20036;-72
2022/01/21 03:24:09;;;;;;;7.38;1.55;;;1.70;99.90;;;;;;5071415;28;20388;-73
2022/01/21 03:26:34;;;;;;;6.55;1.20;;;1.80;99.90;;;;;;5072366;28;20353;-72
2022/01/21 03:29:04;;;;;;;10.40;1.80;;;1.90;99.90;;;;;;5072351;28;20024;-72
2022/01/21 03:31:31;;;;;;;2.47;1.05;;;1.90;99.90;;;;;;5071565;28;20472;-72
2022/01/21 03:33:59;;;;;;;10.65;1.15;;;1.80;99.90;;;;;;5072093;28;20035;-72
2022/01/21 03:36:28;;;;;;;4.85;0.82;;;1.80;99.90;;;;;;5071458;28;20035;-72
2022/01/21 03:38:55;;;;;;;7.80;1.15;;;1.70;99.90;;;;;;5072075;28;20025;-72
2022/01/21 03:41:20;;;;;;;5.82;1.05;;;1.60;99.90;;;;;;5072360;28;20377;-72
2022/01/21 03:43:48;;;;;;;5.03;1.20;;;1.60;99.90;;;;;;5071904;28;20031;-72
2022/01/21 03:46:13;;;;;;;11.52;1.08;;;1.50;99.90;;;;;;5071931;28;20502;-72
2022/01/21 03:48:39;;;;;;;9.85;1.58;;;1.50;99.90;;;;;;5072301;28;20099;-72
2022/01/21 03:51:05;;;;;;;9.00;1.02;;;1.40;99.90;;;;;;5071653;28;20025;-72
2022/01/21 03:53:31;;;;;;;11.60;1.20;;;1.30;99.90;;;;;;5072416;28;20383;-72
2022/01/21 03:55:58;;;;;;;11.43;1.17;;;1.30;99.90;;;;;;5072324;28;20445;-72
2022/01/21 03:58:23;;;;;;;13.57;1.00;;;1.30;99.90;;;;;;5071575;28;20052;-72
2022/01/21 04:00:52;;;;;;;4.55;1.15;;;1.30;99.90;;;;;;5071757;28;20067;-72
2022/01/21 04:03:18;;;;;;;10.57;0.98;;;1.30;99.90;;;;;;5073667;28;20257;-73
2022/01/21 04:05:44;;;;;;;5.88;1.23;;;1.30;99.90;;;;;;5073649;28;20048;-72
2022/01/21 04:08:11;;;;;;;3.58;0.80;;;1.30;99.90;;;;;;5071845;28;20076;-72
2022/01/21 04:10:41;;;;;;;14.60;1.25;;;1.20;99.90;;;;;;5073265;28;20028;-72
2022/01/21 04:13:14;;;;;;;3.05;1.10;;;1.20;99.90;;;;;;5076875;28;20025;-72
2022/01/21 04:15:40;;;;;;;4.35;1.05;;;1.30;99.90;;;;;;5077145;28;20025;-73
2022/01/21 04:18:05;;;;;;;5.50;0.88;;;1.20;99.90;;;;;;5080985;28;20031;-73
2022/01/21 04:20:31;;;;;;;4.10;0.88;;;1.20;99.90;;;;;;5078374;28;20062;-72
2022/01/21 04:22:57;;;;;;;9.30;1.20;;;1.30;99.90;;;;;;5076258;28;20570;-72
2022/01/21 04:25:23;;;;;;;5.20;0.70;;;1.10;99.90;;;;;;5075760;28;20081;-72
2022/01/21 04:27:49;;;;;;;2.88;1.33;;;1.10;99.90;;;;;;5074962;28;20017;-72
2022/01/21 04:30:14;;;;;;;4.00;1.38;;;1.00;99.90;;;;;;5075109;28;20028;-73
2022/01/21 04:32:42;;;;;;;10.88;0.90;;;1.00;99.90;;;;;;5075726;28;20024;-72
2022/01/21 04:35:08;;;;;;;6.07;0.82;;;0.90;99.90;;;;;;5075121;28;20070;-72
2022/01/21 04:37:36;;;;;;;8.35;1.30;;;0.90;99.90;;;;;;5075524;28;20029;-73
2022/01/21 04:40:13;;;;;;;10.98;0.95;;;0.80;99.90;;;;;;5074611;28;20407;-72
2022/01/21 04:48:07;;;;;;;7.72;1.08;;;0.90;99.90;;;;;;5074722;28;20534;-72
2022/01/21 04:50:41;;;;;;;11.88;1.00;;;0.90;99.90;;;;;;5075210;28;20028;-72
2022/01/21 04:53:07;;;;;;;7.78;1.25;;;0.90;99.90;;;;;;5074764;28;20353;-71
2022/01/21 04:55:34;;;;;;;7.72;1.20;;;0.90;99.90;;;;;;5074295;28;20376;-72
2022/01/21 04:58:00;;;;;;;5.32;1.02;;;1.10;99.90;;;;;;5075719;28;20031;-72
2022/01/21 05:00:26;;;;;;;9.30;1.40;;;1.10;99.90;;;;;;5074723;28;20423;-73
2022/01/21 05:03:00;;;;;;;7.53;1.25;;;1.20;99.90;;;;;;5073997;28;20119;-72
2022/01/21 05:05:27;;;;;;;12.80;1.35;;;1.30;99.90;;;;;;5074881;28;20029;-73
2022/01/21 05:07:53;;;;;;;5.57;1.05;;;1.30;99.90;;;;;;5074570;28;20443;-73
2022/01/21 05:10:19;;;;;;;9.27;1.35;;;1.90;99.90;;;;;;5074359;28;20116;-73
2022/01/21 05:12:45;;;;;;;12.88;1.40;;;1.50;99.90;;;;;;5074957;28;20103;-73
2022/01/21 05:15:17;;;;;;;7.65;1.23;;;1.50;99.90;;;;;;5074034;28;20113;-73
2022/01/21 05:17:48;;;;;;;6.78;2.22;;;1.50;99.90;;;;;;5074843;28;20058;-73
2022/01/21 05:20:14;;;;;;;;;;;1.40;99.90;;;;;;5075569;28;20032;-73
2022/01/21 05:22:43;;;;;;;4.38;1.40;;;1.50;99.90;;;;;;5073995;28;19912;-73
2022/01/21 05:25:16;;;;;;;7.15;1.50;;;1.50;99.90;;;;;;5074252;28;20028;-73
2022/01/21 05:27:43;;;;;;;11.30;1.88;;;1.50;99.90;;;;;;5074531;28;20024;-73
2022/01/21 05:30:09;;;;;;;8.48;4.18;;;1.50;99.90;;;;;;5073597;28;20043;-73
2022/01/21 05:32:35;;;;;;;28.23;8.05;;;1.50;99.90;;;;;;5074410;28;20024;-73
2022/01/21 05:35:01;;;;;;;25.05;8.77;;;1.50;99.90;;;;;;5074731;28;20020;-73
2022/01/21 05:37:26;;;;;;;17.92;5.82;;;1.50;99.90;;;;;;5074291;28;20025;-73
2022/01/21 05:39:52;;;;;;;11.73;6.05;;;1.50;99.90;;;;;;5075106;28;20430;-73
2022/01/21 05:42:22;;;;;;;7.60;2.40;;;1.50;99.90;;;;;;5074476;28;20035;-72
2022/01/21 05:47:13;;;;;;;4.25;0.98;;;1.40;99.90;;;;;;5074520;28;20032;-73
2022/01/21 05:49:40;;;;;;;9.63;0.90;;;1.40;99.90;;;;;;5074716;28;20036;-73
2022/01/21 05:52:10;;;;;;;12.52;1.60;;;1.40;99.90;;;;;;5073839;28;20430;-73
2022/01/21 05:54:36;;;;;;;6.78;1.35;;;1.40;99.90;;;;;;5074674;28;20103;-71
2022/01/21 05:57:06;;;;;;;14.27;3.78;;;2.20;99.90;;;;;;5074162;28;20489;-71
2022/01/21 05:59:33;;;;;;;5.55;1.27;;;1.30;99.90;;;;;;5074336;28;20115;-71
2022/01/21 06:01:58;;;;;;;9.27;1.38;;;1.30;99.90;;;;;;5074869;28;20105;-72
2022/01/21 06:04:24;;;;;;;2.47;0.90;;;1.30;99.90;;;;;;5073946;28;20444;-73
2022/01/21 06:06:49;;;;;;;9.32;1.70;;;1.40;99.90;;;;;;5073755;28;20474;-73
2022/01/21 06:09:15;;;;;;;9.15;1.30;;;1.60;99.90;;;;;;5073664;28;20032;-72
2022/01/21 06:11:41;;;;;;;9.27;1.60;;;1.70;99.90;;;;;;5073342;28;20041;-72
2022/01/21 06:14:06;;;;;;;8.88;1.13;;;1.80;99.90;;;;;;5073123;28;20060;-73
2022/01/21 06:16:34;;;;;;;4.10;1.45;;;1.80;99.90;;;;;;5074136;28;20028;-73
2022/01/21 06:19:00;;;;;;;7.00;1.83;;;1.90;99.90;;;;;;5073198;28;20024;-73
2022/01/21 06:21:25;;;;;;;11.98;1.63;;;2.00;99.90;;;;;;5073769;28;20093;-73
2022/01/21 06:23:51;;;;;;;15.50;1.10;;;2.20;99.90;;;;;;5074165;28;20078;-74
2022/01/21 06:26:16;;;;;;;8.20;2.10;;;2.20;99.90;;;;;;5072827;28;20035;-74
2022/01/21 06:28:42;;;;;;;5.82;1.23;;;2.40;99.90;;;;;;5073907;28;20484;-74
2022/01/21 06:31:08;;;;;;;7.97;1.58;;;2.40;99.90;;;;;;5072937;28;20139;-74
2022/01/21 06:33:33;;;;;;;5.22;0.82;;;2.40;99.90;;;;;;5072533;28;20051;-74
2022/01/21 06:35:59;;;;;;;6.75;1.23;;;2.40;99.90;;;;;;5073888;28;20029;-72
2022/01/21 06:38:25;;;;;;;14.38;1.17;;;2.30;99.90;;;;;;5072750;28;20024;-72
2022/01/21 06:40:51;;;;;;;10.32;1.25;;;2.20;99.90;;;;;;5072398;28;20036;-74
2022/01/21 06:43:17;;;;;;;11.85;1.23;;;2.10;99.90;;;;;;5072431;28;20025;-73
2022/01/21 06:45:43;;;;;;;7.43;1.48;;;2.00;99.90;;;;;;5086669;28;20476;-73
2022/01/21 06:48:09;;;;;;;8.32;1.40;;;1.90;99.90;;;;;;5081148;28;20032;-73
2022/01/21 06:50:37;;;;;;;11.55;1.85;;;1.90;99.90;;;;;;5072217;28;20086;-73
2022/01/21 06:53:04;;;;;;;11.95;1.83;;;1.80;99.90;;;;;;5072074;28;20020;-73
2022/01/21 06:55:29;;;;;;;11.63;1.42;;;1.80;99.90;;;;;;5070889;28;20021;-73
2022/01/21 06:57:55;;;;;;;10.13;1.40;;;1.80;99.90;;;;;;5071476;28;20357;-72
2022/01/21 07:00:21;;;;;;;4.72;1.38;;;1.80;99.90;;;;;;5076625;28;20036;-72
2022/01/21 07:02:51;;;;;;;3.75;1.00;;;1.70;99.90;;;;;;5071175;28;20017;-73
2022/01/21 07:05:18;;;;;;;11.83;1.20;;;1.80;99.90;;;;;;5072657;28;20021;-73
2022/01/21 07:07:44;;;;;;;9.70;1.52;;;1.90;99.90;;;;;;5073911;28;20462;-73
2022/01/21 07:10:11;;;;;;;12.30;1.70;;;1.90;99.90;;;;;;5085349;28;20024;-73
2022/01/21 07:12:38;;;;;;;6.65;1.38;;;1.90;99.90;;;;;;5091032;28;20027;-73
2022/01/21 07:15:08;;;;;;;8.57;1.77;;;1.90;99.90;;;;;;5073803;28;20040;-74
2022/01/21 07:17:34;;;;;;;14.63;1.60;;;1.90;99.90;;;;;;5072238;28;20019;-73
2022/01/21 07:20:00;;;;;;;16.05;2.50;;;1.90;99.90;;;;;;5071679;28;20139;-73
2022/01/21 07:22:26;;;;;;;9.63;1.63;;;2.00;99.90;;;;;;5088301;28;20020;-73
2022/01/21 07:24:52;;;;;;;12.45;2.05;;;2.10;99.90;;;;;;5091768;28;20111;-73
2022/01/21 07:27:17;;;;;;;9.07;1.60;;;2.10;99.90;;;;;;5091307;28;20046;-74
2022/01/21 07:29:43;;;;;;;10.43;2.50;;;2.10;99.90;;;;;;5090946;28;20364;-73
2022/01/21 07:32:09;;;;;;;8.75;1.23;;;2.30;99.90;;;;;;5091511;28;20066;-72
2022/01/21 07:34:35;;;;;;;8.07;1.23;;;2.50;99.90;;;;;;5091804;28;20023;-73
2022/01/21 07:37:01;;;;;;;13.48;1.27;;;2.80;99.90;;;;;;5090986;28;20024;-73
2022/01/21 07:39:26;;;;;;;9.65;1.50;;;3.00;99.90;;;;;;5078304;28;20524;-74
2022/01/21 07:41:52;;;;;;;8.68;1.52;;;3.20;99.90;;;;;;5081316;28;20031;-73
2022/01/21 07:44:18;;;;;;;4.53;1.50;;;3.20;99.90;;;;;;5091062;28;20032;-73
2022/01/21 07:46:47;;;;;;;8.77;1.52;;;3.30;99.90;;;;;;5089802;28;20023;-73
2022/01/21 07:49:14;;;;;;;8.48;1.67;;;3.30;99.90;;;;;;5090892;28;20031;-73
2022/01/21 07:51:40;;;;;;;7.85;1.15;;;3.30;99.90;;;;;;5090478;28;20092;-73
2022/01/21 07:54:06;;;;;;;9.35;1.50;;;3.20;99.90;;;;;;5090696;28;20073;-73
2022/01/21 07:56:33;;;;;;;5.60;0.90;;;3.10;99.90;;;;;;5092581;28;20039;-73
2022/01/21 07:58:59;;;;;;;4.25;0.95;;;2.90;99.90;;;;;;5094285;28;20028;-73
2022/01/21 08:01:25;;;;;;;11.30;1.95;;;2.80;99.90;;;;;;5091696;28;20036;-73
2022/01/21 08:03:51;;;;;;;10.90;1.15;;;2.70;99.90;;;;;;5091697;28;20458;-72
2022/01/21 08:06:16;;;;;;;7.75;2.00;;;2.60;99.90;;;;;;5090974;28;20027;-73
2022/01/21 08:08:42;;;;;;;3.75;1.30;;;2.50;99.90;;;;;;5077876;28;20641;-74
2022/01/21 08:11:08;;;;;;;8.55;1.50;;;2.40;99.90;;;;;;5071124;28;20034;-74
2022/01/21 08:13:33;;;;;;;9.07;2.60;;;2.40;99.90;;;;;;5072358;28;20099;-74
2022/01/21 08:16:00;;;;;;;12.27;2.47;;;2.50;99.90;;;;;;5071789;28;20464;-73
2022/01/21 08:18:25;;;;;;;8.20;1.27;;;2.50;99.90;;;;;;5070754;28;20024;-73
2022/01/21 08:20:51;;;;;;;5.80;1.17;;;2.50;99.90;;;;;;5071640;28;20120;-74
2022/01/21 08:23:17;;;;;;;8.13;1.45;;;2.50;99.90;;;;;;5071198;28;20021;-76
2022/01/21 08:25:43;;;;;;;5.20;1.60;;;2.50;99.90;;;;;;5071107;28;20457;-73
2022/01/21 08:28:09;;;;;;;13.07;3.10;;;2.40;99.90;;;;;;5071469;28;20021;-74
2022/01/21 08:30:34;;;;;;;9.88;1.98;;;2.50;99.90;;;;;;5071752;28;20048;-76
2022/01/21 08:33:01;;;;;;;16.77;2.03;;;2.50;99.90;;;;;;5070974;28;20059;-74
2022/01/21 08:35:27;;;;;;;5.20;1.85;;;2.50;99.90;;;;;;5071399;28;20425;-72
2022/01/21 08:37:53;;;;;;;5.20;1.50;;;2.50;99.90;;;;;;5071648;28;20077;-73
2022/01/21 08:40:20;;;;;;;9.90;2.28;;;2.60;99.90;;;;;;5070492;28;20043;-74
2022/01/21 08:42:45;;;;;;;12.07;3.55;;;2.60;99.90;;;;;;5071542;28;20025;-74
2022/01/21 08:45:11;;;;;;;12.52;2.38;;;2.80;99.90;;;;;;5071135;28;20025;-75
2022/01/21 08:47:40;;;;;;;13.75;1.95;;;2.90;99.90;;;;;;5075957;28;20016;-76
2022/01/21 08:50:09;;;;;;;5.90;1.30;;;3.00;99.90;;;;;;5091263;28;20028;-74
2022/01/21 08:52:40;;;;;;;19.20;2.30;;;3.20;99.90;;;;;;5091741;28;20027;-73
2022/01/21 08:55:12;;;;;;;9.20;1.80;;;3.40;99.90;;;;;;5090927;28;20077;-72
2022/01/21 08:57:41;;;;;;;9.38;1.90;;;3.50;99.90;;;;;;5094973;28;20115;-72
2022/01/21 09:00:16;;;;;;;11.20;1.73;;;3.80;99.90;;;;;;5087597;28;20035;-73
2022/01/21 09:02:42;;;;;;;12.07;3.35;;;3.90;99.90;;;;;;5074378;28;20028;-73
2022/01/21 09:05:08;;;;;;;14.73;2.00;;;4.00;99.90;;;;;;5072520;28;20098;-73
2022/01/21 09:07:34;;;;;;;7.57;1.77;;;4.10;99.90;;;;;;5073876;28;20076;-72
2022/01/21 09:09:59;;;;;;;14.45;1.65;;;4.30;99.90;;;;;;5074903;28;20115;-72
2022/01/21 09:12:25;;;;;;;15.45;2.13;;;4.40;99.90;;;;;;5075096;28;20024;-72
2022/01/21 09:14:51;;;;;;;15.88;2.20;;;4.40;99.90;;;;;;5073226;28;20082;-74
2022/01/21 09:17:17;;;;;;;13.10;2.58;;;4.50;99.90;;;;;;5073956;28;20039;-72
2022/01/21 09:19:46;;;;;;;12.07;1.77;;;4.50;99.90;;;;;;5074062;28;20445;-73
2022/01/21 09:22:12;;;;;;;11.15;1.83;;;4.50;99.90;;;;;;5075336;28;20032;-73
2022/01/21 09:24:37;;;;;;;17.88;2.67;;;4.60;99.90;;;;;;5074418;28;20102;-74
2022/01/21 09:27:07;;;;;;;21.40;3.13;;;4.60;99.90;;;;;;5074260;28;20067;-73
2022/01/21 09:29:34;;;;;;;22.05;2.20;;;4.60;99.90;;;;;;5074451;28;20426;-73
2022/01/21 09:32:01;;;;;;;12.45;4.70;;;4.70;99.90;;;;;;5074538;28;20039;-73
2022/01/21 09:34:28;;;;;;;11.88;2.17;;;4.80;99.90;;;;;;5074341;28;20024;-74
2022/01/21 09:36:57;;;;;;;16.67;3.05;;;4.80;99.90;;;;;;5073955;28;20021;-74
2022/01/21 09:39:23;;;;;;;11.30;2.97;;;4.90;99.90;;;;;;5073981;28;20056;-74
2022/01/21 09:41:49;;;;;;;11.32;2.72;;;4.90;99.90;;;;;;5074426;28;20086;-74
2022/01/21 09:44:19;;;;;;;13.48;2.50;;;5.00;99.90;;;;;;5073642;28;20033;-75
2022/01/21 09:46:49;;;;;;;9.00;2.30;;;5.10;99.90;;;;;;5074328;28;20511;-74
2022/01/21 09:49:27;;;;;;;10.73;2.08;;;5.10;99.90;;;;;;5073510;28;20124;-74
2022/01/21 09:51:57;;;;;;;13.48;2.58;;;5.20;99.90;;;;;;5074449;28;20111;-73
2022/01/21 09:54:27;;;;;;;23.48;3.97;;;5.30;99.90;;;;;;5074075;28;20308;-73
2022/01/21 09:56:55;;;;;;;14.60;2.38;;;5.20;99.90;;;;;;5073627;28;20023;-74
2022/01/21 09:59:23;;;;;;;19.77;2.17;;;5.30;99.90;;;;;;5073564;28;20039;-74
2022/01/21 10:01:55;;;;;;;13.70;3.13;;;5.30;99.90;;;;;;5074129;28;20040;-75
2022/01/21 10:04:26;;;;;;;12.20;2.25;;;5.40;99.90;;;;;;5073028;28;20476;-74
2022/01/21 10:06:54;;;;;;;25.83;4.68;;;5.40;99.90;;;;;;5073510;28;20500;-75
2022/01/21 10:09:21;;;;;;;11.10;2.33;;;5.40;99.90;;;;;;5072609;28;20112;-74
2022/01/21 10:11:49;;;;;;;14.20;1.98;;;5.50;99.90;;;;;;5073109;28;20059;-74
2022/01/21 10:14:19;;;;;;;17.45;2.03;;;5.70;99.90;;;;;;5073287;28;20028;-74
2022/01/21 10:16:46;;;;;;;18.88;2.70;;;5.70;99.90;;;;;;5073967;28;20028;-74
2022/01/21 10:19:11;;;;;;;11.38;2.17;;;5.70;99.90;;;;;;5073017;28;20033;-74
2022/01/21 10:21:39;;;;;;;18.33;1.67;;;5.80;99.90;;;;;;5074600;28;20033;-74
2022/01/21 10:24:11;;;;;;;18.85;1.98;;;5.80;99.90;;;;;;5077367;28;20029;-75
2022/01/21 10:26:51;;;;;;;10.52;1.60;;;5.90;99.90;;;;;;5075266;28;20457;-75
2022/01/21 10:29:21;;;;;;;15.25;1.70;;;6.00;99.90;;;;;;5074384;28;20055;-74
2022/01/21 10:31:58;;;;;;;11.00;1.60;;;6.00;99.90;;;;;;5073100;28;20119;-74
2022/01/21 10:34:38;;;;;;;15.25;1.25;;;6.10;99.90;;;;;;5074029;28;20028;-74
2022/01/21 10:37:24;;;;;;;19.35;2.83;;;6.20;99.90;;;;;;5075150;28;20044;-74
2022/01/21 10:40:05;;;;;;;16.15;1.65;;;6.40;99.90;;;;;;5073675;28;20104;-74
2022/01/21 10:42:31;;;;;;;9.93;1.73;;;6.50;99.90;;;;;;5073934;28;20035;-76
2022/01/21 10:44:58;;;;;;;8.77;1.35;;;6.50;99.90;;;;;;5073509;28;20058;-73
2022/01/21 10:47:29;;;;;;;12.77;2.78;;;6.60;99.90;;;;;;5072191;28;20032;-74
2022/01/21 10:50:07;;;;;;;;;;;6.80;99.90;;;;;;5074069;28;20031;-74
2022/01/21 10:52:45;;;;;;;10.50;1.58;;;6.80;99.90;;;;;;5072356;28;20006;-74
2022/01/21 10:55:34;;;;;;;10.75;1.95;;;6.90;99.90;;;;;;5072718;28;20025;-74
2022/01/21 10:58:09;;;;;;;11.15;2.03;;;6.90;99.90;;;;;;5072762;28;20024;-74
2022/01/21 11:00:36;;;;;;;25.98;4.30;;;6.90;99.90;;;;;;5072328;28;20032;-74
2022/01/21 11:03:14;;;;;;;11.68;1.25;;;6.80;99.90;;;;;;5073404;28;20099;-75
2022/01/21 11:05:45;;;;;;;11.57;2.53;;;6.80;99.90;;;;;;5073035;28;20024;-74
2022/01/21 11:08:12;;;;;;;12.63;1.75;;;6.80;99.90;;;;;;5071711;28;20052;-74
2022/01/21 11:10:39;;;;;;;7.90;1.30;;;6.80;99.90;;;;;;5072972;28;20028;-73
2022/01/21 11:13:15;;;;;;;13.13;2.10;;;6.90;99.90;;;;;;5072533;28;20032;-74
2022/01/21 11:15:43;;;;;;;14.35;2.25;;;6.80;99.90;;;;;;5071975;28;20078;-74
2022/01/21 11:18:13;;;;;;;10.23;1.52;;;6.80;99.90;;;;;;5072984;28;20537;-74
2022/01/21 11:20:41;;;;;;;;;;;6.80;99.90;;;;;;5072010;28;20051;-74
2022/01/21 11:23:10;;;;;;;13.18;1.48;;;6.70;99.90;;;;;;5072493;28;19908;-74
2022/01/21 11:25:47;;;;;;;11.60;2.00;;;6.70;99.90;;;;;;5072814;28;20031;-75
2022/01/21 11:28:18;;;;;;;7.90;1.88;;;6.70;99.90;;;;;;5072455;28;20275;-74
2022/01/21 11:30:45;;;;;;;18.13;1.98;;;6.70;99.90;;;;;;5072933;28;20021;-74
2022/01/21 11:33:11;;;;;;;8.77;1.23;;;6.70;99.90;;;;;;5071961;28;20028;-74
2022/01/21 11:35:37;;;;;;;19.00;1.73;;;6.70;99.90;;;;;;5071744;28;20025;-74
2022/01/21 11:38:08;;;;;;;9.90;1.20;;;6.80;99.90;;;;;;5072673;28;20039;-74
2022/01/21 11:40:35;;;;;;;5.78;1.45;;;6.80;99.90;;;;;;5072125;28;20055;-74
2022/01/21 11:43:03;;;;;;;13.45;1.50;;;6.90;99.90;;;;;;5071660;28;20021;-73
2022/01/21 11:50:44;;;;;;;7.57;1.60;;;7.00;99.90;;;;;;5071816;28;20037;-74
2022/01/21 11:53:10;;;;;;;10.65;1.75;;;7.00;99.90;;;;;;5072233;28;20066;-74
2022/01/21 11:55:46;;;;;;;14.05;1.73;;;7.10;99.90;;;;;;5072322;28;20033;-74
2022/01/21 11:58:20;;;;;;;19.67;3.25;;;7.10;99.90;;;;;;5071537;28;20025;-74
2022/01/21 12:00:50;;;;;;;14.07;3.25;;;7.10;99.90;;;;;;5071766;28;20488;-73
2022/01/21 12:03:19;;;;;;;8.25;1.85;;;7.00;99.90;;;;;;5071015;28;20099;-75
2022/01/21 12:05:45;;;;;;;10.77;1.67;;;7.10;99.90;;;;;;5072048;28;20033;-75
2022/01/21 12:08:11;;;;;;;8.55;1.42;;;7.10;99.90;;;;;;5071380;28;20186;-74
2022/01/21 12:10:42;;;;;;;15.32;1.52;;;7.20;99.90;;;;;;5071177;28;20032;-73
2022/01/21 12:13:18;;;;;;;4.20;1.27;;;7.40;99.90;;;;;;5071613;28;20070;-74
2022/01/21 12:21:41;;;;;;;8.88;1.77;;;7.50;99.90;;;;;;5065974;28;20554;-74
2022/01/21 12:24:08;;;;;;;17.48;1.85;;;7.30;99.90;;;;;;5071017;28;20028;-73
2022/01/21 12:26:34;;;;;;;17.45;3.33;;;7.20;99.90;;;;;;5071745;28;20079;-74
2022/01/21 12:29:00;;;;;;;15.80;2.15;;;7.10;99.90;;;;;;5071591;28;20392;-73
2022/01/21 12:31:54;;;;;;;15.32;1.85;;;7.10;99.90;;;;;;5070805;28;20020;-74
2022/01/21 12:34:20;;;;;;;17.13;2.38;;;7.10;99.90;;;;;;5088420;28;20089;-74
2022/01/21 12:36:53;;;;;;;10.95;2.53;;;7.20;99.90;;;;;;5095808;28;20016;-73
2022/01/21 12:39:41;;;;;;;19.95;2.30;;;7.20;99.90;;;;;;5095256;28;20028;-74
2022/01/21 12:42:24;;;;;;;7.43;1.83;;;7.10;99.90;;;;;;5075772;28;20036;-73
2022/01/21 12:44:56;;;;;;;16.20;3.90;;;7.00;99.90;;;;;;5075634;28;20031;-74
2022/01/21 12:47:27;;;;;;;14.40;2.13;;;6.90;99.90;;;;;;5074335;28;20032;-72
2022/01/21 12:49:55;;;;;;;18.67;2.42;;;6.80;99.90;;;;;;5075188;28;20040;-72
2022/01/21 12:52:46;;;;;;;26.98;3.72;;;6.70;99.90;;;;;;5074738;28;20056;-73
2022/01/21 12:58:22;;;;;;;16.73;2.15;;;6.80;99.90;;;;;;5075106;28;20040;-73
2022/01/21 13:00:47;;;;;;;18.00;2.50;;;6.90;99.90;;;;;;5075018;28;20067;-74
2022/01/21 13:03:35;;;;;;;8.63;2.10;;;6.90;99.90;;;;;;5076798;28;20028;-73
2022/01/21 13:06:14;;;;;;;15.82;2.35;;;6.90;99.90;;;;;;5077976;28;20051;-74
2022/01/21 13:08:59;;;;;;;13.75;2.00;;;6.90;99.90;;;;;;5080899;28;20051;-73
2022/01/21 13:11:25;;;;;;;13.50;2.55;;;6.90;99.90;;;;;;5075140;28;20552;-74
2022/01/21 13:17:09;;;;;;;4.50;1.40;;;6.90;99.90;;;;;;5079259;28;20499;-73
2022/01/21 13:19:45;;;;;;;10.80;1.80;;;6.90;99.90;;;;;;5075156;28;20028;-73
2022/01/21 13:22:23;;;;;;;13.30;2.00;;;6.90;99.90;;;;;;5075279;28;20123;-74
2022/01/21 13:25:08;;;;;;;12.05;1.73;;;6.90;99.90;;;;;;5075221;28;20150;-74
2022/01/21 13:27:42;;;;;;;22.88;2.45;;;6.90;99.90;;;;;;5074228;28;20029;-73
2022/01/21 13:30:11;;;;;;;17.50;1.88;;;6.90;99.90;;;;;;5074265;28;20039;-73
2022/01/21 13:32:37;;;;;;;12.23;2.22;;;6.80;99.90;;;;;;5075347;28;20379;-73
2022/01/21 13:35:09;;;;;;;13.63;2.45;;;6.80;99.90;;;;;;5074383;28;20025;-74
2022/01/21 13:37:36;;;;;;;7.75;1.92;;;6.70;99.90;;;;;;5074538;28;20025;-74
2022/01/21 13:40:04;;;;;;;11.23;2.00;;;6.70;99.90;;;;;;5074305;28;20103;-73
2022/01/21 13:42:31;;;;;;;10.50;1.80;;;6.70;99.90;;;;;;5073321;28;20079;-72
2022/01/21 13:45:01;;;;;;;10.10;1.90;;;6.60;99.90;;;;;;5074320;28;20303;-73
2022/01/21 13:47:32;;;;;;;11.80;2.55;;;6.70;99.90;;;;;;5074197;28;20072;-73
2022/01/21 13:50:05;;;;;;;5.78;1.75;;;6.70;99.90;;;;;;5073783;28;20032;-73
2022/01/21 13:52:52;;;;;;;6.20;1.20;;;6.60;99.90;;;;;;5073880;28;20064;-73
2022/01/21 13:55:32;;;;;;;7.07;1.80;;;6.60;99.90;;;;;;5073766;28;20084;-72
2022/01/21 13:58:02;;;;;;;10.02;1.55;;;6.50;99.90;;;;;;5074085;28;20115;-73
2022/01/21 14:00:37;;;;;;;13.10;2.25;;;6.50;99.90;;;;;;5073583;28;20037;-72
2022/01/21 14:03:02;;;;;;;13.98;1.58;;;6.60;99.90;;;;;;5071902;28;20029;-74